Shinsen Maru — JG5654 — position and weather

sailwx.info

Track history (hours):
 
Tides and Currents Weather Stations Pressure Air Temp Water Temp Dewpoint Dewpoint Depression Visibility Wind Speed Wind Dir Waves Ship Positions

Shinsen Maru

Last reported at 2018-Jun-20 08:24 UTC. Time now 2018-Jun-20 09:01 UTC.
Position N 35°05' E 139°41'.

Length 160 m; draft 6.8 m.

Type: Cargo ship. MMSI: 431100987.

Date/timePositionNaut miles runAvg speedWind from/ knotsBaromVisibWave heightAir tempDewpointWater temp
2018-Jun-20 08:24N 35°05' E 139°41'819.1
2018-Jun-20 08:00N 35°12' E 139°46'612.3
2018-Jun-20 07:31N 35°18' E 139°44'713.4
2018-Jun-20 07:01N 35°24' E 139°43'918.8
2018-Jun-20 06:30N 35°31' E 139°51'713.9
2018-Jun-20 06:00N 35°37' E 139°46'0 0.0
2018-Jun-19 22:47N 35°37' E 139°46'310.4
2018-Jun-19 22:31N 35°35' E 139°48'713.5
2018-Jun-19 22:00N 35°28' E 139°51'815.6
2018-Jun-19 21:30N 35°22' E 139°45'510.9
2018-Jun-19 21:00N 35°17' E 139°45'611.9
2018-Jun-19 20:30N 35°11' E 139°47'2210.1
2018-Jun-19 18:20N 34°58' E 140°08'  
2018-Jun-14 12:31N 33°55' E 134°58'019.0
2018-Jun-14 12:30N 33°55' E 134°58'918.8
2018-Jun-14 12:00N 34°04' E 134°58'919.0
2018-Jun-14 11:30N 34°14' E 134°58'816.1
2018-Jun-14 11:01N 34°21' E 135°00'918.2
2018-Jun-14 10:30N 34°29' E 135°07'1019.6
2018-Jun-14 10:00N 34°35' E 135°16'714.6
2018-Jun-14 09:30N 34°37' E 135°25'0 0.3
2018-Jun-14 08:54N 34°37' E 135°25'0 0.0
2018-Jun-14 04:18N 34°37' E 135°25'0 0.0
2018-Jun-14 03:54N 34°37' E 135°25'0 0.0
2018-Jun-14 03:30N 34°37' E 135°25'1 1.6
2018-Jun-14 03:00N 34°36' E 135°24'713.9
2018-Jun-14 02:30N 34°32' E 135°17'816.6
2018-Jun-14 02:00N 34°27' E 135°10'917.6
2018-Jun-14 01:30N 34°20' E 135°02'816.4
2018-Jun-14 01:00N 34°13' E 134°59'918.4
2018-Jun-14 00:30N 34°03' E 134°58'918.3
2018-Jun-14 00:00N 33°54' E 135°00'917.3
2018-Jun-13 23:30N 33°46' E 135°04'817.0
2018-Jun-13 23:00N 33°40' E 135°11'23816.5
2018-Jun-13 08:36N 35°04' E 139°40'218.0
2018-Jun-13 08:30N 35°05' E 139°41'917.4
2018-Jun-13 08:00N 35°13' E 139°46'510.7
2018-Jun-13 07:30N 35°18' E 139°44'611.2
2018-Jun-13 07:00N 35°23' E 139°42'1018.7
2018-Jun-13 06:30N 35°30' E 139°51'714.9
2018-Jun-13 06:00N 35°36' E 139°46'1 0.2
2018-Jun-12 23:02N 35°38' E 139°46'0 0.1
2018-Jun-12 22:51N 35°38' E 139°46'2 4.5
2018-Jun-12 22:30N 35°36' E 139°47'611.8
2018-Jun-12 22:00N 35°32' E 139°52'816.8
2018-Jun-12 21:30N 35°25' E 139°47'612.6
2018-Jun-12 21:00N 35°19' E 139°44'612.4
2018-Jun-12 20:30N 35°13' E 139°47'1016.2
2018-Jun-12 19:54N 35°04' E 139°45'2311.6
2018-Jun-12 17:57N 35°00' E 140°12'  
Track history (hours):
 
Tides and Currents Weather Stations Pressure Air Temp Water Temp Dewpoint Dewpoint Depression Visibility Wind Speed Wind Dir Waves Ship Positions

Shinsen Maru

Last reported at 2018-Jun-20 08:24 UTC. Time now 2018-Jun-20 09:01 UTC.
Position N 35°05' E 139°41'.

Length 160 m; draft 6.8 m.

Type: Cargo ship. MMSI: 431100987.

Date/timePositionNaut miles runAvg speedWind from/ knotsBaromVisibWave heightAir tempDewpointWater temp
2018-Jun-20 08:24N 35°05' E 139°41'819.1
2018-Jun-20 08:00N 35°12' E 139°46'612.3
2018-Jun-20 07:31N 35°18' E 139°44'713.4
2018-Jun-20 07:01N 35°24' E 139°43'918.8
2018-Jun-20 06:30N 35°31' E 139°51'713.9
2018-Jun-20 06:00N 35°37' E 139°46'0 0.0
2018-Jun-19 22:47N 35°37' E 139°46'310.4
2018-Jun-19 22:31N 35°35' E 139°48'713.5
2018-Jun-19 22:00N 35°28' E 139°51'815.6
2018-Jun-19 21:30N 35°22' E 139°45'510.9
2018-Jun-19 21:00N 35°17' E 139°45'611.9
2018-Jun-19 20:30N 35°11' E 139°47'2210.1
2018-Jun-19 18:20N 34°58' E 140°08'  
2018-Jun-14 12:31N 33°55' E 134°58'019.0
2018-Jun-14 12:30N 33°55' E 134°58'918.8
2018-Jun-14 12:00N 34°04' E 134°58'919.0
2018-Jun-14 11:30N 34°14' E 134°58'816.1
2018-Jun-14 11:01N 34°21' E 135°00'918.2
2018-Jun-14 10:30N 34°29' E 135°07'1019.6
2018-Jun-14 10:00N 34°35' E 135°16'714.6
2018-Jun-14 09:30N 34°37' E 135°25'0 0.3
2018-Jun-14 08:54N 34°37' E 135°25'0 0.0
2018-Jun-14 04:18N 34°37' E 135°25'0 0.0
2018-Jun-14 03:54N 34°37' E 135°25'0 0.0
2018-Jun-14 03:30N 34°37' E 135°25'1 1.6
2018-Jun-14 03:00N 34°36' E 135°24'713.9
2018-Jun-14 02:30N 34°32' E 135°17'816.6
2018-Jun-14 02:00N 34°27' E 135°10'917.6
2018-Jun-14 01:30N 34°20' E 135°02'816.4
2018-Jun-14 01:00N 34°13' E 134°59'918.4
2018-Jun-14 00:30N 34°03' E 134°58'918.3
2018-Jun-14 00:00N 33°54' E 135°00'917.3
2018-Jun-13 23:30N 33°46' E 135°04'817.0
2018-Jun-13 23:00N 33°40' E 135°11'23816.5
2018-Jun-13 08:36N 35°04' E 139°40'218.0
2018-Jun-13 08:30N 35°05' E 139°41'917.4
2018-Jun-13 08:00N 35°13' E 139°46'510.7
2018-Jun-13 07:30N 35°18' E 139°44'611.2
2018-Jun-13 07:00N 35°23' E 139°42'1018.7
2018-Jun-13 06:30N 35°30' E 139°51'714.9
2018-Jun-13 06:00N 35°36' E 139°46'1 0.2
2018-Jun-12 23:02N 35°38' E 139°46'0 0.1
2018-Jun-12 22:51N 35°38' E 139°46'2 4.5
2018-Jun-12 22:30N 35°36' E 139°47'611.8
2018-Jun-12 22:00N 35°32' E 139°52'816.8
2018-Jun-12 21:30N 35°25' E 139°47'612.6
2018-Jun-12 21:00N 35°19' E 139°44'612.4
2018-Jun-12 20:30N 35°13' E 139°47'1016.2
2018-Jun-12 19:54N 35°04' E 139°45'2311.6
2018-Jun-12 17:57N 35°00' E 140°12'  

Dump ship's entire track history